Latest Coastal Weather Observations for Green Cape

IDN60701

Issued at 9:05 pm EDT Saturday 25 October 2014 (issued every 10 minutes, with the page automatically refreshed every 10 minutes)

About coastal observations | Map of coastal stations | Coastal observations for NSW | Marine services | Other Formats
Station Details ID: 069137 Name: GREEN CAPE AWS Lat: -37.26 Lon: 150.05 Height: 19.4 m
Data from the previous 72 hours. | See also: Recent months at Green Cape
Date/Time
EDT
Temp

°C
Wind Pressure Rain
since 9am
mm
Weather Cloud Vis
km
Sea
Height
m
Swell
Dir
 
Speed
knots
Gust
knots
hPa Trend Height
m
Period
s
Dir
25/09:00pm 15.9 S 3 4 1016.8 - 0.2 - - - - - - -
25/08:30pm 15.9 S 4 5 1016.4 - 0.2 - - - - - - -
25/08:00pm 15.7 S 4 5 1016.4 - 0.2 - - - - - - -
25/07:30pm 15.8 SSW 6 7 1016.2 - 0.2 - - - - - - -
25/07:00pm 16.2 SSE 8 10 1015.5 - 0.2 - - - - - - -
25/06:41pm 16.5 ENE 4 12 1014.4 - 0.2 - - - - - - -
25/06:30pm 16.2 SSW 3 5 1016.5 - 0.2 - - - - - - -
25/06:00pm 16.5 S 5 6 1015.7 - 0.2 - - - - - - -
25/05:30pm 17.3 S 7 7 1015.4 - 0.2 - - - - - - -
25/05:00pm 17.9 S 9 10 1015.0 - 0.2 - - - - - - -
25/04:30pm 18.6 S 9 10 1014.8 - 0.2 - - - - - - -
25/04:00pm 18.8 S 12 14 1015.0 - 0.2 - - - - - - -
25/03:30pm 19.0 S 13 15 1015.1 - 0.2 - - - - - - -
25/03:00pm 18.8 S 15 16 1015.3 - 0.2 - - - - - - -
25/02:30pm 18.4 S 16 18 1015.5 - 0.2 - - - - - - -
25/02:00pm 18.7 S 17 20 1015.8 - 0.2 - - - - - - -
25/01:30pm 18.3 S 18 22 1015.7 - 0.2 - - - - - - -
25/01:00pm 18.7 S 17 19 1015.7 - 0.2 - - - - - - -
25/12:30pm 18.7 S 17 19 1015.9 - 0.2 - - - - - - -
25/12:00pm 18.4 S 17 19 1016.1 - 0.2 - - - - - - -
25/11:30am 18.8 S 15 18 1016.3 - 0.2 - - - - - - -
25/11:00am 19.2 S 13 15 1016.4 - 0.2 - - - - - - -
25/10:30am 18.8 S 11 13 1016.6 - 0.0 - - - - - - -
25/10:00am 18.3 S 11 13 1016.5 - 0.0 - - - - - - -
25/09:30am 18.0 S 11 13 1016.4 - 0.0 - - - - - - -
25/09:00am 17.3 SSW 12 14 1016.3 - 0.0 - - - - - - -
25/08:30am 17.3 SSW 12 14 1016.1 - 0.0 - - - - - - -
25/08:00am 16.9 SSW 11 13 1016.0 - 0.0 - - - - - - -
25/07:30am 16.6 SSW 15 17 1015.3 - 0.0 - - - - - - -
25/07:00am 16.4 SSW 19 22 1014.8 - 0.0 - - - - - - -
25/06:30am 16.6 SSW 10 14 1014.8 - 0.0 - - - - - - -
25/06:00am 16.4 SW 7 8 1014.4 - 0.0 - - - - - - -
25/05:30am 16.3 W 7 8 1014.1 - 0.0 - - - - - - -
25/05:00am 16.6 WSW 9 12 1013.6 - 0.0 - - - - - - -
25/04:30am 16.4 SW 9 10 1013.7 - 0.0 - - - - - - -
25/04:00am 16.2 W 7 9 1013.2 - 0.0 - - - - - - -
25/03:30am 16.4 W 0 6 1013.0 - 0.0 - - - - - - -
25/03:00am 16.0 CALM 0 1 1013.1 - 0.0 - - - - - - -
25/02:30am 16.3 CALM 0 0 1012.8 - 0.0 - - - - - - -
25/02:00am 16.5 CALM 0 1 1012.7 - 0.0 - - - - - - -
25/01:30am 16.7 CALM 0 0 1012.2 - 0.0 - - - - - - -
25/01:00am 16.9 CALM 0 1 1012.5 - 0.0 - - - - - - -
25/12:30am 16.6 CALM 0 0 1012.4 - 0.0 - - - - - - -
25/12:00am 16.2 N 0 0 1012.3 - 0.0 - - - - - - -
 
Date/Time
EDT
Temp

°C
Wind Pressure Rain
since 9am
mm
Weather Cloud Vis
km
Sea
Height
m
Swell
Dir
 
Speed
knots
Gust
knots
hPa Trend Height
m
Period
s
Dir
24/11:30pm 16.4 CALM 0 0 1012.2 - 0.0 - - - - - - -
24/11:00pm 16.1 CALM 0 0 1012.3 - 0.0 - - - - - - -
24/10:30pm 16.4 N 2 4 1012.3 - 0.0 - - - - - - -
24/10:00pm 16.5 N 4 6 1012.2 - 0.0 - - - - - - -
24/09:30pm 16.9 N 8 9 1012.1 - 0.0 - - - - - - -
24/09:00pm 17.2 N 5 7 1012.3 - 0.0 - - - - - - -
24/08:30pm 17.2 N 11 12 1011.7 - 0.0 - - - - - - -
24/08:00pm 17.5 N 13 14 1011.2 - 0.0 - - - - - - -
24/07:30pm 17.7 N 15 16 1011.0 - 0.0 - - - - - - -
24/07:00pm 18.6 N 6 8 1011.6 - 0.0 - - - - - - -
24/06:30pm 17.9 N 11 12 1011.2 - 0.0 - - - - - - -
24/06:00pm 18.4 NNE 13 15 1011.0 - 0.0 - - - - - - -
24/05:30pm 18.7 NNE 11 13 1011.3 - 0.0 - - - - - - -
24/05:00pm 19.2 N 12 13 1011.3 - 0.0 - - - - - - -
24/04:30pm 19.5 NNE 12 14 1011.4 - 0.0 - - - - - - -
24/04:00pm 19.9 NNE 14 16 1011.5 - 0.0 - - - - - - -
24/03:30pm 20.4 N 15 17 1011.7 - 0.0 - - - - - - -
24/03:00pm 20.6 NNE 16 17 1012.0 - 0.0 - - - - - - -
24/02:30pm 20.1 NNE 16 18 1012.3 - 0.0 - - - - - - -
24/02:00pm 19.6 NNE 17 19 1012.8 - 0.0 - - - - - - -
24/01:30pm 20.1 NNE 16 19 1013.2 - 0.0 - - - - - - -
24/01:00pm 20.1 N 18 22 1013.5 - 0.0 - - - - - - -
24/12:30pm 19.8 NNE 18 21 1014.1 - 0.0 - - - - - - -
24/12:00pm 19.9 NNE 15 17 1014.8 - 0.0 - - - - - - -
24/11:30am 19.4 NNE 12 14 1015.4 - 0.0 - - - - - - -
24/11:00am 19.4 NNE 12 14 1016.0 - 0.0 - - - - - - -
24/10:30am 18.8 NNE 13 16 1016.4 - 0.0 - - - - - - -
24/10:00am 19.0 NNE 14 17 1016.8 - 0.0 - - - - - - -
24/09:30am 18.3 NNE 9 13 1017.2 - 0.0 - - - - - - -
24/09:00am 18.2 NNE 9 10 1017.5 - 1.0 - - - - - - -
24/08:30am 17.7 NNE 10 11 1017.5 - 1.0 - - - - - - -
24/08:00am 17.4 N 8 9 1017.9 - 1.0 - - - - - - -
24/07:30am 17.1 NNE 9 10 1017.9 - 1.0 - - - - - - -
24/07:00am 17.4 NNE 12 16 1017.5 - 1.0 - - - - - - -
24/06:30am 17.4 NNE 10 12 1017.8 - 1.0 - - - - - - -
24/06:00am 17.4 NNE 5 6 1018.4 - 1.0 Rain - - - - - -
24/05:30am 17.6 NNE 16 18 1017.0 - 0.8 - - - - - - -
24/05:00am 17.5 NNE 21 24 1016.1 - 0.2 - - - - - - -
24/04:55am 17.4 NNE 19 24 1016.2 - 0.2 - - - - - - -
24/04:30am 17.6 NE 13 16 1018.2 - 0.2 - - - - - - -
24/04:00am 17.4 NNE 12 15 1017.1 - 0.2 - - - - - - -
24/03:30am 17.4 NNE 12 14 1017.8 - 0.2 - - - - - - -
24/03:00am 17.4 NNE 10 11 1018.5 - 0.2 - - - - - - -
24/02:30am 17.4 NNE 11 12 1018.7 - 0.2 - - - - - - -
24/02:00am 17.5 NNE 3 6 1018.9 - 0.2 - - - - - - -
24/01:30am 17.3 NNE 3 5 1019.3 - 0.2 - - - - - - -
24/01:00am 17.1 N 1 2 1019.8 - 0.0 - - - - - - -
24/12:30am 16.7 W 1 2 1019.9 - 0.0 - - - - - - -
24/12:00am 16.8 CALM 0 2 1020.2 - 0.0 - - - - - - -
 
Date/Time
EDT
Temp

°C
Wind Pressure Rain
since 9am
mm
Weather Cloud Vis
km
Sea
Height
m
Swell
Dir
 
Speed
knots
Gust
knots
hPa Trend Height
m
Period
s
Dir
23/11:30pm 16.8 W 3 4 1020.4 - 0.0 - - - - - - -
23/11:00pm 16.7 W 3 3 1020.2 - 0.0 - - - - - - -
23/10:30pm 16.8 CALM 0 0 1020.2 - 0.0 - - - - - - -
23/10:00pm 16.6 SE 1 2 1020.0 - 0.0 - - - - - - -
23/09:30pm 16.8 ESE 5 7 1020.1 - 0.0 - - - - - - -
23/09:00pm 16.9 SE 7 8 1019.9 - 0.0 - - - - - - -
23/08:30pm 16.8 SSW 5 6 1020.3 - 0.0 - - - - - - -
23/08:00pm 16.9 SSW 5 6 1020.2 - 0.0 - - - - - - -
23/07:30pm 17.2 S 5 6 1019.3 - 0.0 - - - - - - -
23/07:00pm 17.2 S 6 7 1019.1 - 0.0 - - - - - - -
23/06:30pm 17.6 S 6 8 1019.2 - 0.0 - - - - - - -
23/06:00pm 17.7 S 9 10 1019.1 - 0.0 - - - - - - -
23/05:30pm 17.5 S 10 11 1019.1 - 0.0 - - - - - - -
23/05:00pm 17.9 S 12 13 1018.8 - 0.0 - - - - - - -
23/04:30pm 18.5 S 13 14 1018.6 - 0.0 - - - - - - -
23/04:00pm 19.1 S 16 19 1018.1 - 0.0 - - - - - - -
23/03:30pm 19.0 S 19 22 1017.6 - 0.0 - - - - - - -
23/03:00pm 19.2 S 19 22 1017.6 - 0.0 - - - - - - -
23/02:30pm 19.4 S 21 23 1017.4 - 0.0 - - - - - - -
23/02:00pm 20.3 S 19 22 1017.7 - 0.0 - - - - - - -
23/01:30pm 20.4 S 18 20 1017.6 - 0.0 - - - - - - -
23/01:00pm 21.1 S 16 18 1017.7 - 0.0 - - - - - - -
23/12:30pm 22.2 S 7 12 1017.9 - 0.0 - - - - - - -
23/12:00pm 22.3 SSE 1 2 1018.2 - 0.0 - - - - - - -
23/11:30am 22.7 CALM 0 1 1018.6 - 0.0 - - - - - - -
23/11:00am 20.2 CALM 0 0 1018.7 - 0.0 - - - - - - -
23/10:30am 19.5 CALM 0 0 1018.7 - 0.0 - - - - - - -
23/10:00am 20.2 NNW 3 7 1018.5 - 0.0 - - - - - - -
23/09:30am 19.2 N 6 11 1017.9 - 0.0 - - - - - - -
23/09:00am 18.7 CALM 0 1 1017.3 - 0.0 - - - - - - -
23/08:30am 17.8 CALM 0 0 1017.3 - 0.0 - - - - - - -
23/08:00am 17.1 CALM 0 0 1017.7 - 0.0 - - - - - - -
23/07:30am 16.2 CALM 0 0 1017.6 - 0.0 - - - - - - -
23/07:00am 14.6 CALM 0 2 1017.7 - 0.0 - - - - - - -
23/06:30am 14.6 CALM 0 0 1017.1 - 0.0 - - - - - - -
23/06:00am 14.7 CALM 0 2 1017.1 - 0.0 - - - - - - -
23/05:30am 14.9 CALM 0 0 1016.2 - 0.0 - - - - - - -
23/05:00am 15.0 N 2 3 1016.1 - 0.0 - - - - - - -
23/04:30am 15.1 WNW 6 9 1016.1 - 0.0 - - - - - - -
23/04:00am 15.6 NNW 4 6 1016.0 - 0.0 - - - - - - -
23/03:30am 15.4 N 7 10 1016.0 - 0.0 - - - - - - -
23/03:00am 15.2 N 4 6 1016.4 - 0.0 - - - - - - -
23/02:30am 15.1 N 4 5 1016.7 - 0.0 - - - - - - -
23/02:00am 15.2 N 7 8 1017.0 - 0.0 - - - - - - -
23/01:30am 15.3 N 4 7 1017.4 - 0.0 - - - - - - -
23/01:00am 15.4 N 6 8 1017.7 - 0.0 - - - - - - -
23/12:30am 15.7 N 14 15 1017.5 - 0.0 - - - - - - -
23/12:00am 15.7 N 14 16 1017.7 - 0.0 - - - - - - -
 
Date/Time
EDT
Temp

°C
Wind Pressure Rain
since 9am
mm
Weather Cloud Vis
km
Sea
Height
m
Swell
Dir
 
Speed
knots
Gust
knots
hPa Trend Height
m
Period
s
Dir
22/11:30pm 15.6 N 14 15 1017.9 - 0.0 - - - - - - -
22/11:00pm 15.8 N 14 15 1017.9 - 0.0 - - - - - - -
22/10:30pm 16.0 N 15 16 1018.3 - 0.0 - - - - - - -
22/10:00pm 16.0 N 14 16 1018.6 - 0.0 - - - - - - -
22/09:30pm 16.1 N 14 15 1018.7 - 0.0 - - - - - - -

Other Formats:

Comma delimited format used in spreadsheet applications
http://www.bom.gov.au/fwo/IDN60701/IDN60701.94934.axf

JavaScript Object Notation format (JSON) in row-major order
http://www.bom.gov.au/fwo/IDN60701/IDN60701.94934.json